sensor_id;sensor_type;location;lat;lon;timestamp;P1;durP1;ratioP1;P2;durP2;ratioP2
23044;SDS011;11690;51.716;23.066;2023-04-15T00:01:47;5.47;;;3.17;;
23044;SDS011;11690;51.716;23.066;2023-04-15T00:04:15;4.60;;;3.15;;
23044;SDS011;11690;51.716;23.066;2023-04-15T00:06:42;5.47;;;3.65;;
23044;SDS011;11690;51.716;23.066;2023-04-15T00:09:09;4.07;;;3.13;;
23044;SDS011;11690;51.716;23.066;2023-04-15T00:11:36;3.92;;;2.47;;
23044;SDS011;11690;51.716;23.066;2023-04-15T00:14:04;4.68;;;3.10;;
23044;SDS011;11690;51.716;23.066;2023-04-15T00:16:31;3.75;;;2.67;;
23044;SDS011;11690;51.716;23.066;2023-04-15T00:18:59;4.07;;;3.08;;
23044;SDS011;11690;51.716;23.066;2023-04-15T00:21:26;4.55;;;2.85;;
23044;SDS011;11690;51.716;23.066;2023-04-15T00:23:54;5.75;;;3.47;;
23044;SDS011;11690;51.716;23.066;2023-04-15T00:26:22;4.20;;;3.13;;
23044;SDS011;11690;51.716;23.066;2023-04-15T00:28:49;3.50;;;2.85;;
23044;SDS011;11690;51.716;23.066;2023-04-15T00:31:17;3.60;;;3.03;;
23044;SDS011;11690;51.716;23.066;2023-04-15T00:33:45;4.47;;;3.03;;
23044;SDS011;11690;51.716;23.066;2023-04-15T00:36:12;4.70;;;2.88;;
23044;SDS011;11690;51.716;23.066;2023-04-15T00:38:40;4.18;;;3.30;;
23044;SDS011;11690;51.716;23.066;2023-04-15T00:41:08;5.53;;;3.33;;
23044;SDS011;11690;51.716;23.066;2023-04-15T00:43:36;4.70;;;3.40;;
23044;SDS011;11690;51.716;23.066;2023-04-15T00:46:04;3.97;;;3.05;;
23044;SDS011;11690;51.716;23.066;2023-04-15T00:48:32;3.90;;;3.03;;
23044;SDS011;11690;51.716;23.066;2023-04-15T00:50:59;3.92;;;2.75;;
23044;SDS011;11690;51.716;23.066;2023-04-15T00:53:26;5.78;;;3.80;;
23044;SDS011;11690;51.716;23.066;2023-04-15T00:55:53;6.00;;;3.78;;
23044;SDS011;11690;51.716;23.066;2023-04-15T00:58:21;5.13;;;3.00;;
23044;SDS011;11690;51.716;23.066;2023-04-15T01:00:48;5.07;;;3.22;;
23044;SDS011;11690;51.716;23.066;2023-04-15T01:03:20;4.40;;;3.03;;
23044;SDS011;11690;51.716;23.066;2023-04-15T01:05:47;4.43;;;2.75;;
23044;SDS011;11690;51.716;23.066;2023-04-15T01:08:15;4.88;;;3.20;;
23044;SDS011;11690;51.716;23.066;2023-04-15T01:10:42;5.32;;;3.38;;
23044;SDS011;11690;51.716;23.066;2023-04-15T01:13:09;5.30;;;3.25;;
23044;SDS011;11690;51.716;23.066;2023-04-15T01:15:38;4.22;;;2.75;;
23044;SDS011;11690;51.716;23.066;2023-04-15T01:18:06;5.47;;;3.30;;
23044;SDS011;11690;51.716;23.066;2023-04-15T01:20:33;5.40;;;3.72;;
23044;SDS011;11690;51.716;23.066;2023-04-15T01:23:00;4.85;;;3.20;;
23044;SDS011;11690;51.716;23.066;2023-04-15T01:25:31;4.32;;;3.25;;
23044;SDS011;11690;51.716;23.066;2023-04-15T01:27:59;5.18;;;3.90;;
23044;SDS011;11690;51.716;23.066;2023-04-15T01:30:26;5.63;;;3.40;;
23044;SDS011;11690;51.716;23.066;2023-04-15T01:32:53;4.20;;;3.28;;
23044;SDS011;11690;51.716;23.066;2023-04-15T01:35:20;5.97;;;3.40;;
23044;SDS011;11690;51.716;23.066;2023-04-15T01:37:50;4.75;;;3.00;;
23044;SDS011;11690;51.716;23.066;2023-04-15T01:40:18;4.38;;;2.92;;
23044;SDS011;11690;51.716;23.066;2023-04-15T01:42:45;5.90;;;3.10;;
23044;SDS011;11690;51.716;23.066;2023-04-15T01:45:14;4.85;;;3.10;;
23044;SDS011;11690;51.716;23.066;2023-04-15T01:47:41;4.88;;;3.45;;
23044;SDS011;11690;51.716;23.066;2023-04-15T01:50:08;4.55;;;3.25;;
23044;SDS011;11690;51.716;23.066;2023-04-15T01:52:36;5.55;;;3.35;;
23044;SDS011;11690;51.716;23.066;2023-04-15T01:55:04;4.95;;;3.60;;
23044;SDS011;11690;51.716;23.066;2023-04-15T01:57:32;6.70;;;3.33;;
23044;SDS011;11690;51.716;23.066;2023-04-15T01:59:59;4.38;;;3.25;;
23044;SDS011;11690;51.716;23.066;2023-04-15T02:02:27;5.70;;;3.85;;
23044;SDS011;11690;51.716;23.066;2023-04-15T02:04:55;4.88;;;2.72;;
23044;SDS011;11690;51.716;23.066;2023-04-15T02:07:22;6.45;;;3.53;;
23044;SDS011;11690;51.716;23.066;2023-04-15T02:09:49;6.45;;;3.35;;
23044;SDS011;11690;51.716;23.066;2023-04-15T02:12:17;5.70;;;3.97;;
23044;SDS011;11690;51.716;23.066;2023-04-15T02:14:44;7.05;;;4.00;;
23044;SDS011;11690;51.716;23.066;2023-04-15T02:17:11;5.53;;;3.63;;
23044;SDS011;11690;51.716;23.066;2023-04-15T02:19:38;6.07;;;3.42;;
23044;SDS011;11690;51.716;23.066;2023-04-15T02:22:06;6.28;;;3.72;;
23044;SDS011;11690;51.716;23.066;2023-04-15T02:24:34;4.22;;;3.17;;
23044;SDS011;11690;51.716;23.066;2023-04-15T02:27:02;4.43;;;3.17;;
23044;SDS011;11690;51.716;23.066;2023-04-15T02:29:30;5.00;;;3.15;;
23044;SDS011;11690;51.716;23.066;2023-04-15T02:32:00;6.20;;;3.75;;
23044;SDS011;11690;51.716;23.066;2023-04-15T02:34:27;5.38;;;3.10;;
23044;SDS011;11690;51.716;23.066;2023-04-15T02:36:56;4.53;;;2.95;;
23044;SDS011;11690;51.716;23.066;2023-04-15T02:39:24;5.55;;;3.28;;
23044;SDS011;11690;51.716;23.066;2023-04-15T02:41:51;5.32;;;3.35;;
23044;SDS011;11690;51.716;23.066;2023-04-15T02:44:18;7.70;;;3.10;;
23044;SDS011;11690;51.716;23.066;2023-04-15T02:46:49;5.45;;;3.50;;
23044;SDS011;11690;51.716;23.066;2023-04-15T02:49:20;5.63;;;3.38;;
23044;SDS011;11690;51.716;23.066;2023-04-15T02:51:47;6.10;;;3.95;;
23044;SDS011;11690;51.716;23.066;2023-04-15T02:54:18;5.80;;;3.03;;
23044;SDS011;11690;51.716;23.066;2023-04-15T02:56:46;4.15;;;2.92;;
23044;SDS011;11690;51.716;23.066;2023-04-15T02:59:13;4.65;;;3.03;;
23044;SDS011;11690;51.716;23.066;2023-04-15T03:01:40;5.68;;;3.50;;
23044;SDS011;11690;51.716;23.066;2023-04-15T03:04:08;4.45;;;3.35;;
23044;SDS011;11690;51.716;23.066;2023-04-15T03:06:35;7.80;;;3.55;;
23044;SDS011;11690;51.716;23.066;2023-04-15T03:09:02;6.43;;;3.70;;
23044;SDS011;11690;51.716;23.066;2023-04-15T03:11:33;4.05;;;2.78;;
23044;SDS011;11690;51.716;23.066;2023-04-15T03:14:03;3.50;;;2.70;;
23044;SDS011;11690;51.716;23.066;2023-04-15T03:16:34;5.15;;;3.40;;
23044;SDS011;11690;51.716;23.066;2023-04-15T03:19:01;4.95;;;3.53;;
23044;SDS011;11690;51.716;23.066;2023-04-15T03:21:31;3.67;;;3.25;;
23044;SDS011;11690;51.716;23.066;2023-04-15T03:23:58;6.00;;;4.10;;
23044;SDS011;11690;51.716;23.066;2023-04-15T03:26:27;5.45;;;3.13;;
23044;SDS011;11690;51.716;23.066;2023-04-15T03:28:59;4.13;;;2.85;;
23044;SDS011;11690;51.716;23.066;2023-04-15T03:31:27;4.88;;;3.03;;
23044;SDS011;11690;51.716;23.066;2023-04-15T03:33:54;4.65;;;3.55;;
23044;SDS011;11690;51.716;23.066;2023-04-15T03:36:22;5.50;;;4.13;;
23044;SDS011;11690;51.716;23.066;2023-04-15T03:38:49;6.50;;;4.03;;
23044;SDS011;11690;51.716;23.066;2023-04-15T03:41:16;4.45;;;2.92;;
23044;SDS011;11690;51.716;23.066;2023-04-15T03:43:43;4.18;;;3.22;;
23044;SDS011;11690;51.716;23.066;2023-04-15T03:46:10;5.30;;;3.67;;
23044;SDS011;11690;51.716;23.066;2023-04-15T03:48:37;4.22;;;3.30;;
23044;SDS011;11690;51.716;23.066;2023-04-15T03:51:05;5.72;;;3.80;;
23044;SDS011;11690;51.716;23.066;2023-04-15T03:53:32;5.28;;;3.67;;
23044;SDS011;11690;51.716;23.066;2023-04-15T03:55:59;6.78;;;3.85;;
23044;SDS011;11690;51.716;23.066;2023-04-15T03:58:26;3.70;;;2.85;;
23044;SDS011;11690;51.716;23.066;2023-04-15T04:00:53;4.90;;;3.50;;
23044;SDS011;11690;51.716;23.066;2023-04-15T04:03:20;6.50;;;3.90;;
23044;SDS011;11690;51.716;23.066;2023-04-15T04:05:48;4.55;;;3.30;;
23044;SDS011;11690;51.716;23.066;2023-04-15T04:08:15;6.90;;;4.03;;
23044;SDS011;11690;51.716;23.066;2023-04-15T04:10:42;5.07;;;3.83;;
23044;SDS011;11690;51.716;23.066;2023-04-15T04:13:09;5.00;;;3.53;;
23044;SDS011;11690;51.716;23.066;2023-04-15T04:15:37;4.47;;;2.97;;
23044;SDS011;11690;51.716;23.066;2023-04-15T04:18:03;5.40;;;3.83;;
23044;SDS011;11690;51.716;23.066;2023-04-15T04:20:31;5.43;;;3.38;;
23044;SDS011;11690;51.716;23.066;2023-04-15T04:22:58;4.47;;;3.10;;
23044;SDS011;11690;51.716;23.066;2023-04-15T04:25:25;7.03;;;4.05;;
23044;SDS011;11690;51.716;23.066;2023-04-15T04:27:52;4.18;;;2.90;;
23044;SDS011;11690;51.716;23.066;2023-04-15T04:30:20;5.40;;;3.97;;
23044;SDS011;11690;51.716;23.066;2023-04-15T04:32:46;5.28;;;3.38;;
23044;SDS011;11690;51.716;23.066;2023-04-15T04:35:15;6.00;;;3.70;;
23044;SDS011;11690;51.716;23.066;2023-04-15T04:37:43;3.80;;;2.58;;
23044;SDS011;11690;51.716;23.066;2023-04-15T04:40:10;4.95;;;3.22;;
23044;SDS011;11690;51.716;23.066;2023-04-15T04:42:37;5.22;;;3.30;;
23044;SDS011;11690;51.716;23.066;2023-04-15T04:45:06;3.75;;;2.80;;
23044;SDS011;11690;51.716;23.066;2023-04-15T04:47:34;4.78;;;3.10;;
23044;SDS011;11690;51.716;23.066;2023-04-15T04:50:01;4.53;;;3.03;;
23044;SDS011;11690;51.716;23.066;2023-04-15T04:52:29;5.55;;;2.65;;
23044;SDS011;11690;51.716;23.066;2023-04-15T04:54:56;3.88;;;2.85;;
23044;SDS011;11690;51.716;23.066;2023-04-15T04:57:23;3.92;;;2.75;;
23044;SDS011;11690;51.716;23.066;2023-04-15T04:59:50;3.78;;;3.10;;
23044;SDS011;11690;51.716;23.066;2023-04-15T05:02:17;4.68;;;3.20;;
23044;SDS011;11690;51.716;23.066;2023-04-15T05:04:45;4.10;;;3.10;;
23044;SDS011;11690;51.716;23.066;2023-04-15T05:07:12;2.97;;;2.30;;
23044;SDS011;11690;51.716;23.066;2023-04-15T05:09:39;3.90;;;3.22;;
23044;SDS011;11690;51.716;23.066;2023-04-15T05:12:06;3.83;;;2.63;;
23044;SDS011;11690;51.716;23.066;2023-04-15T05:14:35;3.65;;;2.70;;
23044;SDS011;11690;51.716;23.066;2023-04-15T05:17:02;5.53;;;3.22;;
23044;SDS011;11690;51.716;23.066;2023-04-15T05:19:29;2.28;;;2.00;;
23044;SDS011;11690;51.716;23.066;2023-04-15T05:21:56;4.38;;;2.70;;
23044;SDS011;11690;51.716;23.066;2023-04-15T05:24:23;3.80;;;2.22;;
23044;SDS011;11690;51.716;23.066;2023-04-15T05:26:50;4.18;;;2.47;;
23044;SDS011;11690;51.716;23.066;2023-04-15T05:29:18;4.05;;;2.60;;
23044;SDS011;11690;51.716;23.066;2023-04-15T05:31:45;4.22;;;2.97;;
23044;SDS011;11690;51.716;23.066;2023-04-15T05:34:12;4.15;;;2.53;;
23044;SDS011;11690;51.716;23.066;2023-04-15T05:36:41;3.75;;;2.63;;
23044;SDS011;11690;51.716;23.066;2023-04-15T05:39:09;4.07;;;2.80;;
23044;SDS011;11690;51.716;23.066;2023-04-15T05:41:36;3.45;;;2.20;;
23044;SDS011;11690;51.716;23.066;2023-04-15T05:44:04;3.95;;;2.47;;
23044;SDS011;11690;51.716;23.066;2023-04-15T05:46:31;2.80;;;2.22;;
23044;SDS011;11690;51.716;23.066;2023-04-15T05:48:58;3.67;;;2.60;;
23044;SDS011;11690;51.716;23.066;2023-04-15T05:51:26;3.75;;;2.40;;
23044;SDS011;11690;51.716;23.066;2023-04-15T05:53:53;3.10;;;2.50;;
23044;SDS011;11690;51.716;23.066;2023-04-15T05:56:20;2.85;;;2.10;;
23044;SDS011;11690;51.716;23.066;2023-04-15T05:58:48;2.95;;;2.58;;
23044;SDS011;11690;51.716;23.066;2023-04-15T06:01:16;2.58;;;2.22;;
23044;SDS011;11690;51.716;23.066;2023-04-15T06:03:44;3.08;;;1.80;;
23044;SDS011;11690;51.716;23.066;2023-04-15T06:06:11;4.13;;;2.05;;
23044;SDS011;11690;51.716;23.066;2023-04-15T06:08:39;3.30;;;2.30;;
23044;SDS011;11690;51.716;23.066;2023-04-15T06:11:06;2.72;;;1.80;;
23044;SDS011;11690;51.716;23.066;2023-04-15T06:13:33;2.83;;;2.08;;
23044;SDS011;11690;51.716;23.066;2023-04-15T06:16:00;2.90;;;2.20;;
23044;SDS011;11690;51.716;23.066;2023-04-15T06:18:28;3.72;;;2.00;;
23044;SDS011;11690;51.716;23.066;2023-04-15T06:20:55;3.38;;;2.17;;
23044;SDS011;11690;51.716;23.066;2023-04-15T06:23:23;2.30;;;1.85;;
23044;SDS011;11690;51.716;23.066;2023-04-15T06:25:52;2.03;;;1.80;;
23044;SDS011;11690;51.716;23.066;2023-04-15T06:28:19;3.03;;;1.98;;
23044;SDS011;11690;51.716;23.066;2023-04-15T06:30:47;2.50;;;1.92;;
23044;SDS011;11690;51.716;23.066;2023-04-15T06:33:14;2.42;;;1.70;;
23044;SDS011;11690;51.716;23.066;2023-04-15T06:35:41;3.33;;;2.17;;
23044;SDS011;11690;51.716;23.066;2023-04-15T06:38:08;2.58;;;1.75;;
23044;SDS011;11690;51.716;23.066;2023-04-15T06:40:36;3.75;;;2.38;;
23044;SDS011;11690;51.716;23.066;2023-04-15T06:43:03;3.00;;;2.20;;
23044;SDS011;11690;51.716;23.066;2023-04-15T06:45:30;2.88;;;1.98;;
23044;SDS011;11690;51.716;23.066;2023-04-15T06:47:58;2.78;;;2.20;;
23044;SDS011;11690;51.716;23.066;2023-04-15T06:50:25;4.85;;;2.00;;
23044;SDS011;11690;51.716;23.066;2023-04-15T06:52:53;2.70;;;2.05;;
23044;SDS011;11690;51.716;23.066;2023-04-15T06:55:21;2.53;;;1.90;;
23044;SDS011;11690;51.716;23.066;2023-04-15T06:57:48;2.35;;;1.88;;
23044;SDS011;11690;51.716;23.066;2023-04-15T07:00:15;2.10;;;1.90;;
23044;SDS011;11690;51.716;23.066;2023-04-15T07:02:43;2.83;;;1.75;;
23044;SDS011;11690;51.716;23.066;2023-04-15T07:05:11;2.47;;;1.77;;
23044;SDS011;11690;51.716;23.066;2023-04-15T07:07:38;2.33;;;1.73;;
23044;SDS011;11690;51.716;23.066;2023-04-15T07:10:06;3.75;;;1.92;;
23044;SDS011;11690;51.716;23.066;2023-04-15T07:12:33;3.53;;;2.28;;
23044;SDS011;11690;51.716;23.066;2023-04-15T07:15:01;4.53;;;1.80;;
23044;SDS011;11690;51.716;23.066;2023-04-15T07:17:29;3.90;;;1.52;;
23044;SDS011;11690;51.716;23.066;2023-04-15T07:19:56;1.63;;;1.30;;
23044;SDS011;11690;51.716;23.066;2023-04-15T07:22:24;1.60;;;1.17;;
23044;SDS011;11690;51.716;23.066;2023-04-15T07:24:51;2.70;;;1.80;;
23044;SDS011;11690;51.716;23.066;2023-04-15T07:27:19;2.22;;;1.65;;
23044;SDS011;11690;51.716;23.066;2023-04-15T07:29:46;1.85;;;1.25;;
23044;SDS011;11690;51.716;23.066;2023-04-15T07:32:14;3.97;;;2.28;;
23044;SDS011;11690;51.716;23.066;2023-04-15T07:34:42;3.10;;;1.45;;
23044;SDS011;11690;51.716;23.066;2023-04-15T07:37:10;2.63;;;1.58;;
23044;SDS011;11690;51.716;23.066;2023-04-15T07:39:37;1.30;;;1.20;;
23044;SDS011;11690;51.716;23.066;2023-04-15T07:42:04;1.45;;;1.33;;
23044;SDS011;11690;51.716;23.066;2023-04-15T07:44:31;2.28;;;1.60;;
23044;SDS011;11690;51.716;23.066;2023-04-15T07:46:58;2.40;;;1.48;;
23044;SDS011;11690;51.716;23.066;2023-04-15T07:49:25;1.80;;;1.35;;
23044;SDS011;11690;51.716;23.066;2023-04-15T07:51:52;4.32;;;2.58;;
23044;SDS011;11690;51.716;23.066;2023-04-15T07:54:20;2.25;;;1.73;;
23044;SDS011;11690;51.716;23.066;2023-04-15T07:56:47;2.05;;;1.42;;
23044;SDS011;11690;51.716;23.066;2023-04-15T07:59:14;2.20;;;1.40;;
23044;SDS011;11690;51.716;23.066;2023-04-15T08:01:43;3.35;;;1.85;;
23044;SDS011;11690;51.716;23.066;2023-04-15T08:04:10;2.42;;;1.63;;
23044;SDS011;11690;51.716;23.066;2023-04-15T08:06:38;2.47;;;1.58;;
23044;SDS011;11690;51.716;23.066;2023-04-15T08:09:05;2.95;;;1.73;;
23044;SDS011;11690;51.716;23.066;2023-04-15T08:11:34;4.78;;;2.78;;
23044;SDS011;11690;51.716;23.066;2023-04-15T08:14:02;3.58;;;1.90;;
23044;SDS011;11690;51.716;23.066;2023-04-15T08:16:29;1.20;;;1.10;;
23044;SDS011;11690;51.716;23.066;2023-04-15T08:18:56;1.88;;;1.63;;
23044;SDS011;11690;51.716;23.066;2023-04-15T08:21:24;12.50;;;8.68;;
23044;SDS011;11690;51.716;23.066;2023-04-15T08:23:51;2.47;;;2.28;;
23044;SDS011;11690;51.716;23.066;2023-04-15T08:26:19;2.63;;;2.28;;
23044;SDS011;11690;51.716;23.066;2023-04-15T08:28:47;2.28;;;2.00;;
23044;SDS011;11690;51.716;23.066;2023-04-15T08:31:15;3.85;;;2.50;;
23044;SDS011;11690;51.716;23.066;2023-04-15T08:33:43;2.80;;;2.60;;
23044;SDS011;11690;51.716;23.066;2023-04-15T08:36:10;2.92;;;2.00;;
23044;SDS011;11690;51.716;23.066;2023-04-15T08:38:37;2.58;;;2.38;;
23044;SDS011;11690;51.716;23.066;2023-04-15T08:41:11;2.88;;;2.67;;
23044;SDS011;11690;51.716;23.066;2023-04-15T08:43:56;5.25;;;4.28;;
23044;SDS011;11690;51.716;23.066;2023-04-15T08:46:25;8.68;;;5.55;;
23044;SDS011;11690;51.716;23.066;2023-04-15T08:48:53;25.10;;;14.70;;
23044;SDS011;11690;51.716;23.066;2023-04-15T08:51:23;29.98;;;15.30;;
23044;SDS011;11690;51.716;23.066;2023-04-15T08:53:50;18.92;;;10.48;;
23044;SDS011;11690;51.716;23.066;2023-04-15T08:56:18;10.73;;;7.07;;
23044;SDS011;11690;51.716;23.066;2023-04-15T08:58:45;20.83;;;10.93;;
23044;SDS011;11690;51.716;23.066;2023-04-15T09:01:13;26.55;;;14.35;;
23044;SDS011;11690;51.716;23.066;2023-04-15T09:03:40;16.67;;;10.05;;
23044;SDS011;11690;51.716;23.066;2023-04-15T09:06:08;18.75;;;11.30;;
23044;SDS011;11690;51.716;23.066;2023-04-15T09:08:35;32.65;;;17.58;;
23044;SDS011;11690;51.716;23.066;2023-04-15T09:11:02;3.88;;;2.60;;
23044;SDS011;11690;51.716;23.066;2023-04-15T09:13:29;5.03;;;3.70;;
23044;SDS011;11690;51.716;23.066;2023-04-15T09:15:57;25.27;;;9.75;;
23044;SDS011;11690;51.716;23.066;2023-04-15T09:18:31;31.00;;;10.45;;
23044;SDS011;11690;51.716;23.066;2023-04-15T09:21:12;35.10;;;11.90;;
23044;SDS011;11690;51.716;23.066;2023-04-15T09:23:41;65.47;;;21.15;;
23044;SDS011;11690;51.716;23.066;2023-04-15T09:26:29;42.53;;;13.45;;
23044;SDS011;11690;51.716;23.066;2023-04-15T09:29:06;51.55;;;21.08;;
23044;SDS011;11690;51.716;23.066;2023-04-15T09:31:35;60.17;;;21.55;;
23044;SDS011;11690;51.716;23.066;2023-04-15T09:34:03;53.40;;;18.58;;
23044;SDS011;11690;51.716;23.066;2023-04-15T09:39:29;9.57;;;5.65;;
23044;SDS011;11690;51.716;23.066;2023-04-15T09:42:11;18.80;;;9.77;;
23044;SDS011;11690;51.716;23.066;2023-04-15T09:44:38;10.73;;;5.60;;
23044;SDS011;11690;51.716;23.066;2023-04-15T09:47:05;17.83;;;8.25;;
23044;SDS011;11690;51.716;23.066;2023-04-15T09:49:33;26.67;;;10.98;;
23044;SDS011;11690;51.716;23.066;2023-04-15T09:52:00;20.83;;;10.25;;
23044;SDS011;11690;51.716;23.066;2023-04-15T09:54:32;11.65;;;5.32;;
23044;SDS011;11690;51.716;23.066;2023-04-15T09:57:04;12.52;;;6.28;;
23044;SDS011;11690;51.716;23.066;2023-04-15T09:59:33;12.82;;;6.90;;
23044;SDS011;11690;51.716;23.066;2023-04-15T10:02:01;5.30;;;2.92;;
23044;SDS011;11690;51.716;23.066;2023-04-15T10:04:31;4.57;;;2.70;;
23044;SDS011;11690;51.716;23.066;2023-04-15T10:07:03;3.05;;;1.73;;
23044;SDS011;11690;51.716;23.066;2023-04-15T10:09:30;5.82;;;3.75;;
23044;SDS011;11690;51.716;23.066;2023-04-15T10:12:00;4.70;;;3.17;;
23044;SDS011;11690;51.716;23.066;2023-04-15T10:14:32;2.88;;;2.05;;
23044;SDS011;11690;51.716;23.066;2023-04-15T10:17:02;3.03;;;2.28;;
23044;SDS011;11690;51.716;23.066;2023-04-15T10:19:32;4.65;;;3.10;;
23044;SDS011;11690;51.716;23.066;2023-04-15T10:22:00;2.33;;;1.70;;
23044;SDS011;11690;51.716;23.066;2023-04-15T10:24:27;1.02;;;0.93;;
23044;SDS011;11690;51.716;23.066;2023-04-15T10:26:58;1.35;;;1.13;;
23044;SDS011;11690;51.716;23.066;2023-04-15T10:29:26;2.78;;;1.70;;
23044;SDS011;11690;51.716;23.066;2023-04-15T10:31:57;3.03;;;1.70;;
23044;SDS011;11690;51.716;23.066;2023-04-15T10:34:24;2.10;;;1.70;;
23044;SDS011;11690;51.716;23.066;2023-04-15T10:37:01;2.05;;;1.50;;
23044;SDS011;11690;51.716;23.066;2023-04-15T10:42:05;1.77;;;1.45;;
23044;SDS011;11690;51.716;23.066;2023-04-15T10:44:37;3.38;;;2.03;;
23044;SDS011;11690;51.716;23.066;2023-04-15T10:47:08;1.38;;;1.10;;
23044;SDS011;11690;51.716;23.066;2023-04-15T10:49:45;3.67;;;1.50;;
23044;SDS011;11690;51.716;23.066;2023-04-15T10:52:39;2.28;;;1.80;;
23044;SDS011;11690;51.716;23.066;2023-04-15T10:57:37;1.55;;;1.20;;
23044;SDS011;11690;51.716;23.066;2023-04-15T11:00:12;3.55;;;2.53;;
23044;SDS011;11690;51.716;23.066;2023-04-15T11:05:14;9.50;;;4.70;;
23044;SDS011;11690;51.716;23.066;2023-04-15T11:10:55;13.57;;;6.32;;
23044;SDS011;11690;51.716;23.066;2023-04-15T11:15:29;13.77;;;6.70;;
23044;SDS011;11690;51.716;23.066;2023-04-15T11:17:58;7.65;;;4.35;;
23044;SDS011;11690;51.716;23.066;2023-04-15T11:20:34;6.32;;;3.50;;
23044;SDS011;11690;51.716;23.066;2023-04-15T11:23:02;8.70;;;4.28;;
23044;SDS011;11690;51.716;23.066;2023-04-15T11:25:41;4.25;;;2.38;;
23044;SDS011;11690;51.716;23.066;2023-04-15T11:28:10;8.18;;;3.83;;
23044;SDS011;11690;51.716;23.066;2023-04-15T11:30:38;7.05;;;3.85;;
23044;SDS011;11690;51.716;23.066;2023-04-15T11:33:07;11.70;;;5.95;;
23044;SDS011;11690;51.716;23.066;2023-04-15T11:35:35;8.77;;;4.50;;
23044;SDS011;11690;51.716;23.066;2023-04-15T11:38:03;6.95;;;3.75;;
23044;SDS011;11690;51.716;23.066;2023-04-15T11:40:30;1.55;;;1.23;;
23044;SDS011;11690;51.716;23.066;2023-04-15T11:45:51;14.10;;;6.80;;
23044;SDS011;11690;51.716;23.066;2023-04-15T11:48:27;9.95;;;5.10;;
23044;SDS011;11690;51.716;23.066;2023-04-15T11:51:02;11.80;;;5.88;;
23044;SDS011;11690;51.716;23.066;2023-04-15T11:53:43;2.83;;;1.63;;
23044;SDS011;11690;51.716;23.066;2023-04-15T11:56:17;11.60;;;6.38;;
23044;SDS011;11690;51.716;23.066;2023-04-15T11:58:52;9.43;;;5.13;;
23044;SDS011;11690;51.716;23.066;2023-04-15T12:01:35;12.35;;;4.05;;
23044;SDS011;11690;51.716;23.066;2023-04-15T12:04:11;16.33;;;5.93;;
23044;SDS011;11690;51.716;23.066;2023-04-15T12:06:39;26.00;;;8.55;;
23044;SDS011;11690;51.716;23.066;2023-04-15T12:09:14;23.45;;;10.02;;
23044;SDS011;11690;51.716;23.066;2023-04-15T12:11:46;6.50;;;3.72;;
23044;SDS011;11690;51.716;23.066;2023-04-15T12:16:42;32.13;;;11.55;;
23044;SDS011;11690;51.716;23.066;2023-04-15T12:19:54;10.27;;;4.88;;
23044;SDS011;11690;51.716;23.066;2023-04-15T12:22:09;23.15;;;9.32;;
23044;SDS011;11690;51.716;23.066;2023-04-15T12:24:40;8.60;;;4.70;;
23044;SDS011;11690;51.716;23.066;2023-04-15T12:27:10;18.50;;;6.40;;
23044;SDS011;11690;51.716;23.066;2023-04-15T12:29:38;15.82;;;8.20;;
23044;SDS011;11690;51.716;23.066;2023-04-15T12:34:35;10.52;;;5.78;;
23044;SDS011;11690;51.716;23.066;2023-04-15T12:37:05;10.10;;;5.65;;
23044;SDS011;11690;51.716;23.066;2023-04-15T12:39:34;3.38;;;2.22;;
23044;SDS011;11690;51.716;23.066;2023-04-15T12:42:02;7.15;;;3.65;;
23044;SDS011;11690;51.716;23.066;2023-04-15T12:44:30;7.43;;;4.32;;
23044;SDS011;11690;51.716;23.066;2023-04-15T12:46:59;5.72;;;3.10;;
23044;SDS011;11690;51.716;23.066;2023-04-15T12:49:26;4.18;;;2.42;;
23044;SDS011;11690;51.716;23.066;2023-04-15T12:51:54;3.28;;;2.58;;
23044;SDS011;11690;51.716;23.066;2023-04-15T12:54:23;5.28;;;2.78;;
23044;SDS011;11690;51.716;23.066;2023-04-15T12:56:50;4.63;;;2.80;;
23044;SDS011;11690;51.716;23.066;2023-04-15T12:59:17;4.32;;;2.85;;
23044;SDS011;11690;51.716;23.066;2023-04-15T13:01:45;7.38;;;3.35;;
23044;SDS011;11690;51.716;23.066;2023-04-15T13:04:13;4.78;;;2.28;;
23044;SDS011;11690;51.716;23.066;2023-04-15T13:06:41;6.03;;;3.13;;
23044;SDS011;11690;51.716;23.066;2023-04-15T13:09:08;7.47;;;3.42;;
23044;SDS011;11690;51.716;23.066;2023-04-15T13:11:35;9.98;;;4.15;;
23044;SDS011;11690;51.716;23.066;2023-04-15T13:14:04;5.30;;;3.53;;
23044;SDS011;11690;51.716;23.066;2023-04-15T13:16:33;3.40;;;1.85;;
23044;SDS011;11690;51.716;23.066;2023-04-15T13:19:01;3.42;;;2.03;;
23044;SDS011;11690;51.716;23.066;2023-04-15T13:21:29;5.05;;;1.85;;
23044;SDS011;11690;51.716;23.066;2023-04-15T13:23:58;5.40;;;1.35;;
23044;SDS011;11690;51.716;23.066;2023-04-15T13:26:25;3.72;;;2.33;;
23044;SDS011;11690;51.716;23.066;2023-04-15T13:28:52;3.45;;;2.20;;
23044;SDS011;11690;51.716;23.066;2023-04-15T13:31:19;5.57;;;3.65;;
23044;SDS011;11690;51.716;23.066;2023-04-15T13:33:46;4.43;;;3.67;;
23044;SDS011;11690;51.716;23.066;2023-04-15T13:36:14;1.70;;;1.50;;
23044;SDS011;11690;51.716;23.066;2023-04-15T13:38:41;0.90;;;0.90;;
23044;SDS011;11690;51.716;23.066;2023-04-15T13:41:09;0.80;;;0.63;;
23044;SDS011;11690;51.716;23.066;2023-04-15T13:43:37;1.48;;;0.98;;
23044;SDS011;11690;51.716;23.066;2023-04-15T13:46:03;1.15;;;1.05;;
23044;SDS011;11690;51.716;23.066;2023-04-15T13:48:31;1.52;;;0.90;;
23044;SDS011;11690;51.716;23.066;2023-04-15T13:50:58;1.70;;;1.25;;
23044;SDS011;11690;51.716;23.066;2023-04-15T13:53:25;2.45;;;0.82;;
23044;SDS011;11690;51.716;23.066;2023-04-15T13:56:07;1.80;;;1.27;;
23044;SDS011;11690;51.716;23.066;2023-04-15T13:58:35;2.83;;;1.20;;
23044;SDS011;11690;51.716;23.066;2023-04-15T14:01:02;2.45;;;1.27;;
23044;SDS011;11690;51.716;23.066;2023-04-15T14:03:32;2.90;;;1.75;;
23044;SDS011;11690;51.716;23.066;2023-04-15T14:06:00;0.70;;;0.60;;
23044;SDS011;11690;51.716;23.066;2023-04-15T14:08:28;1.08;;;0.65;;
23044;SDS011;11690;51.716;23.066;2023-04-15T14:10:55;0.93;;;0.60;;
23044;SDS011;11690;51.716;23.066;2023-04-15T14:13:24;1.00;;;0.60;;
23044;SDS011;11690;51.716;23.066;2023-04-15T14:15:51;0.55;;;0.50;;
23044;SDS011;11690;51.716;23.066;2023-04-15T14:18:18;0.77;;;0.70;;
23044;SDS011;11690;51.716;23.066;2023-04-15T14:20:45;0.77;;;0.60;;
23044;SDS011;11690;51.716;23.066;2023-04-15T14:23:13;1.10;;;0.80;;
23044;SDS011;11690;51.716;23.066;2023-04-15T14:25:40;0.82;;;0.82;;
23044;SDS011;11690;51.716;23.066;2023-04-15T14:28:07;1.25;;;0.77;;
23044;SDS011;11690;51.716;23.066;2023-04-15T14:30:34;0.80;;;0.80;;
23044;SDS011;11690;51.716;23.066;2023-04-15T14:33:02;0.82;;;0.60;;
23044;SDS011;11690;51.716;23.066;2023-04-15T14:35:29;0.80;;;0.60;;
23044;SDS011;11690;51.716;23.066;2023-04-15T14:37:57;1.45;;;0.70;;
23044;SDS011;11690;51.716;23.066;2023-04-15T14:40:24;0.70;;;0.68;;
23044;SDS011;11690;51.716;23.066;2023-04-15T14:42:51;0.50;;;0.50;;
23044;SDS011;11690;51.716;23.066;2023-04-15T14:45:18;1.23;;;0.70;;
23044;SDS011;11690;51.716;23.066;2023-04-15T14:47:46;0.63;;;0.63;;
23044;SDS011;11690;51.716;23.066;2023-04-15T14:50:13;2.00;;;1.33;;
23044;SDS011;11690;51.716;23.066;2023-04-15T14:52:40;1.15;;;0.80;;
23044;SDS011;11690;51.716;23.066;2023-04-15T14:55:08;0.30;;;0.30;;
23044;SDS011;11690;51.716;23.066;2023-04-15T14:57:39;1.10;;;0.80;;
23044;SDS011;11690;51.716;23.066;2023-04-15T15:00:07;0.82;;;0.55;;
23044;SDS011;11690;51.716;23.066;2023-04-15T15:02:36;0.88;;;0.50;;
23044;SDS011;11690;51.716;23.066;2023-04-15T15:05:06;0.65;;;0.60;;